createdAt,value
2023-05-08T00:00:07.300Z,4.80
2023-05-08T00:02:34.479Z,6.10
2023-05-08T00:05:01.814Z,9.40
2023-05-08T00:07:29.096Z,8.30
2023-05-08T00:09:56.268Z,7.50
2023-05-08T00:12:23.342Z,9.10
2023-05-08T00:14:50.658Z,8.90
2023-05-08T00:17:17.738Z,7.50
2023-05-08T00:19:44.877Z,5.70
2023-05-08T00:22:12.057Z,2.60
2023-05-08T00:24:39.283Z,1.00
2023-05-08T00:27:08.339Z,1.00
2023-05-08T00:29:35.592Z,1.00
2023-05-08T00:32:03.021Z,1.00
2023-05-08T00:34:30.218Z,1.00
2023-05-08T00:36:57.922Z,1.00
2023-05-08T00:39:25.066Z,1.00
2023-05-08T00:41:52.275Z,1.00
2023-05-08T00:44:19.496Z,1.00
2023-05-08T00:46:46.924Z,1.00
2023-05-08T00:49:16.313Z,1.00
2023-05-08T00:51:48.155Z,1.00
2023-05-08T00:54:16.991Z,1.00
2023-05-08T00:56:45.646Z,1.00
2023-05-08T00:59:15.011Z,1.00
2023-05-08T01:01:43.931Z,1.00
2023-05-08T01:04:11.480Z,1.00
2023-05-08T01:06:38.650Z,1.00
2023-05-08T01:09:06.035Z,1.00
2023-05-08T01:11:52.722Z,1.00
2023-05-08T01:15:00.846Z,1.00
2023-05-08T01:17:46.207Z,1.00
2023-05-08T01:20:40.151Z,1.00
2023-05-08T01:23:22.387Z,1.00
2023-05-08T01:26:04.287Z,1.00
2023-05-08T01:29:08.799Z,1.00
2023-05-08T01:31:57.160Z,1.00
2023-05-08T01:34:27.388Z,1.00
2023-05-08T01:37:05.749Z,1.00
2023-05-08T01:39:38.979Z,1.00
2023-05-08T01:42:11.726Z,1.00
2023-05-08T01:44:52.010Z,1.00
2023-05-08T01:47:24.383Z,1.00
2023-05-08T01:50:04.534Z,1.00
2023-05-08T01:52:56.950Z,1.00
2023-05-08T01:55:34.338Z,1.00
2023-05-08T01:58:04.711Z,1.00
2023-05-08T02:00:32.132Z,1.00
2023-05-08T02:03:01.158Z,1.00
2023-05-08T02:05:29.494Z,1.00
2023-05-08T02:07:57.346Z,1.00
2023-05-08T02:10:25.976Z,1.00
2023-05-08T02:12:54.979Z,1.00
2023-05-08T02:15:23.295Z,1.00
2023-05-08T02:17:53.327Z,1.00
2023-05-08T02:20:22.563Z,1.00
2023-05-08T02:22:52.017Z,1.00
2023-05-08T02:25:19.941Z,1.00
2023-05-08T02:27:49.686Z,1.00
2023-05-08T02:30:18.043Z,1.00
2023-05-08T02:32:48.257Z,1.00
2023-05-08T02:35:19.635Z,1.00
2023-05-08T02:37:57.617Z,1.00
2023-05-08T02:40:28.349Z,1.00
2023-05-08T02:42:56.462Z,1.00
2023-05-08T02:45:33.046Z,1.00
2023-05-08T02:48:16.002Z,1.00
2023-05-08T02:51:05.452Z,1.00
2023-05-08T02:53:37.874Z,1.00
2023-05-08T02:56:19.063Z,1.00
2023-05-08T02:58:55.400Z,1.00
2023-05-08T03:01:29.407Z,1.00
2023-05-08T03:04:09.725Z,1.00
2023-05-08T03:06:44.772Z,1.00
2023-05-08T03:09:19.155Z,1.00
2023-05-08T03:11:50.547Z,1.00
2023-05-08T03:14:23.228Z,1.00
2023-05-08T03:16:54.215Z,1.00
2023-05-08T03:19:31.692Z,1.00
2023-05-08T03:22:01.041Z,1.00
2023-05-08T03:24:29.909Z,1.00
2023-05-08T03:26:59.666Z,1.00
2023-05-08T03:29:29.154Z,1.00
2023-05-08T03:31:58.755Z,1.00
2023-05-08T03:34:26.628Z,1.00
2023-05-08T03:36:53.761Z,1.00
2023-05-08T03:39:21.047Z,1.00
2023-05-08T03:41:49.853Z,1.00
2023-05-08T03:44:18.459Z,1.00
2023-05-08T03:46:47.496Z,1.00
2023-05-08T03:49:15.735Z,1.00
2023-05-08T03:51:43.521Z,1.00
2023-05-08T03:54:11.205Z,1.00
2023-05-08T03:56:38.379Z,1.00
2023-05-08T03:59:09.052Z,1.00
2023-05-08T04:01:42.984Z,1.00
2023-05-08T04:04:10.072Z,1.00
2023-05-08T04:07:03.075Z,1.00
2023-05-08T04:09:43.678Z,1.00
2023-05-08T04:12:21.294Z,1.00
2023-05-08T04:14:57.148Z,1.00
2023-05-08T04:17:42.031Z,1.00
2023-05-08T04:20:13.939Z,1.00
2023-05-08T04:22:42.649Z,1.00
2023-05-08T04:25:12.420Z,1.00
2023-05-08T04:27:39.964Z,1.00
2023-05-08T04:30:08.318Z,1.00
2023-05-08T04:32:40.257Z,1.00
2023-05-08T04:35:09.055Z,1.00
2023-05-08T04:37:36.248Z,1.00
2023-05-08T04:40:05.106Z,1.00
2023-05-08T04:42:33.709Z,1.00
2023-05-08T04:45:00.959Z,1.00
2023-05-08T04:47:28.178Z,1.00
2023-05-08T04:49:55.395Z,1.00
2023-05-08T04:52:22.524Z,1.00
2023-05-08T04:54:49.667Z,1.00
2023-05-08T04:57:16.851Z,1.00
2023-05-08T04:59:43.985Z,1.00
2023-05-08T05:02:11.157Z,1.00
2023-05-08T05:04:38.491Z,1.00
2023-05-08T05:07:05.859Z,1.00
2023-05-08T05:09:39.202Z,1.00
2023-05-08T05:12:07.290Z,1.00
2023-05-08T05:14:34.728Z,1.00
2023-05-08T05:17:01.847Z,1.00
2023-05-08T05:19:29.005Z,1.00
2023-05-08T05:21:56.163Z,1.00
2023-05-08T05:24:23.338Z,1.00
2023-05-08T05:26:50.492Z,1.00
2023-05-08T05:29:17.781Z,1.00
2023-05-08T05:31:44.935Z,1.00
2023-05-08T05:34:12.845Z,1.00
2023-05-08T05:36:39.905Z,1.00
2023-05-08T05:39:07.176Z,1.00
2023-05-08T05:41:34.687Z,1.00
2023-05-08T05:44:01.867Z,1.00
2023-05-08T05:46:32.777Z,1.00
2023-05-08T05:49:00.266Z,1.00
2023-05-08T05:51:30.005Z,1.00
2023-05-08T05:53:57.425Z,1.00
2023-05-08T05:56:24.589Z,1.00
2023-05-08T05:58:51.968Z,1.00
2023-05-08T06:01:19.212Z,1.00
2023-05-08T06:03:46.692Z,1.00
2023-05-08T06:06:13.910Z,1.00
2023-05-08T06:08:41.133Z,1.00
2023-05-08T06:11:08.588Z,1.00
2023-05-08T06:13:35.823Z,1.00
2023-05-08T06:16:03.254Z,1.00
2023-05-08T06:18:30.327Z,1.00
2023-05-08T06:20:58.893Z,1.00
2023-05-08T06:23:27.161Z,1.00
2023-05-08T06:25:54.867Z,1.00
2023-05-08T06:28:24.228Z,1.00
2023-05-08T06:30:51.422Z,1.00
2023-05-08T06:33:19.015Z,1.00
2023-05-08T06:35:49.490Z,1.00
2023-05-08T06:38:16.855Z,1.00
2023-05-08T06:40:45.029Z,1.00
2023-05-08T06:43:13.120Z,1.00
2023-05-08T06:45:40.840Z,1.00
2023-05-08T06:48:08.266Z,1.00
2023-05-08T06:50:38.390Z,1.00
2023-05-08T06:53:05.873Z,1.00
2023-05-08T06:55:33.299Z,1.00
2023-05-08T06:58:00.576Z,1.00
2023-05-08T07:00:27.984Z,1.00
2023-05-08T07:02:55.324Z,1.00
2023-05-08T07:05:22.648Z,1.00
2023-05-08T07:07:49.823Z,1.00
2023-05-08T07:10:20.059Z,1.00
2023-05-08T07:12:47.239Z,1.00
2023-05-08T07:15:25.546Z,1.00
2023-05-08T07:17:54.434Z,1.00
2023-05-08T07:20:22.018Z,1.00
2023-05-08T07:22:49.306Z,1.00
2023-05-08T07:25:17.128Z,1.00
2023-05-08T07:27:44.202Z,1.00
2023-05-08T07:30:11.734Z,1.00
2023-05-08T07:32:39.689Z,1.00
2023-05-08T07:35:11.139Z,1.00
2023-05-08T07:37:39.616Z,1.00
2023-05-08T07:40:07.433Z,1.00
2023-05-08T07:42:45.021Z,1.00
2023-05-08T07:45:14.159Z,1.00
2023-05-08T07:47:55.967Z,1.00
2023-05-08T07:50:24.308Z,1.00
2023-05-08T07:52:52.108Z,1.00
2023-05-08T07:55:20.307Z,1.00
2023-05-08T07:57:47.427Z,1.00
2023-05-08T08:00:15.992Z,1.00
2023-05-08T08:02:44.608Z,1.00
2023-05-08T08:05:12.748Z,1.00
2023-05-08T08:07:40.398Z,1.00
2023-05-08T08:10:08.164Z,1.00
2023-05-08T08:12:35.405Z,1.00
2023-05-08T08:15:02.956Z,1.00
2023-05-08T08:17:30.102Z,1.00
2023-05-08T08:19:57.452Z,99.90
2023-05-08T08:22:26.130Z,99.90
2023-05-08T08:24:56.032Z,99.90
2023-05-08T08:27:24.084Z,99.90
2023-05-08T08:29:58.476Z,99.90
2023-05-08T08:32:28.564Z,99.90
2023-05-08T08:34:55.730Z,99.90
2023-05-08T08:37:22.980Z,99.90
2023-05-08T08:39:50.167Z,99.90
2023-05-08T08:42:17.324Z,99.90
2023-05-08T08:44:44.904Z,99.90
2023-05-08T08:47:14.862Z,99.90
2023-05-08T08:49:50.699Z,99.90
2023-05-08T08:52:58.989Z,99.90
2023-05-08T08:55:27.016Z,99.90
2023-05-08T08:58:26.216Z,99.90
2023-05-08T09:00:56.328Z,99.90
2023-05-08T09:03:23.556Z,99.90
2023-05-08T09:05:51.395Z,99.90
2023-05-08T09:08:19.436Z,99.90
2023-05-08T09:10:47.104Z,99.90
2023-05-08T09:13:14.314Z,99.90
2023-05-08T09:15:41.715Z,99.90
2023-05-08T09:18:08.836Z,99.90
2023-05-08T09:20:36.294Z,99.90
2023-05-08T09:23:03.853Z,99.90
2023-05-08T09:25:48.272Z,99.90
2023-05-08T09:28:25.341Z,99.90
2023-05-08T09:30:59.397Z,99.90
2023-05-08T09:33:29.137Z,99.90
2023-05-08T09:35:57.602Z,99.90
2023-05-08T09:38:34.016Z,99.90
2023-05-08T09:41:22.062Z,99.90
2023-05-08T09:44:02.497Z,99.90
2023-05-08T09:46:30.492Z,99.90
2023-05-08T09:48:59.806Z,99.90
2023-05-08T09:51:31.825Z,99.90
2023-05-08T09:54:00.836Z,99.90
2023-05-08T09:56:37.988Z,99.90
2023-05-08T09:59:22.361Z,99.90
2023-05-08T10:01:49.737Z,99.90
2023-05-08T10:04:16.852Z,99.90
2023-05-08T10:06:45.370Z,99.90
2023-05-08T10:09:15.722Z,99.90
2023-05-08T10:11:52.695Z,99.90
2023-05-08T10:14:20.761Z,99.90
2023-05-08T10:16:49.504Z,99.90
2023-05-08T10:19:19.313Z,99.90
2023-05-08T10:21:51.516Z,99.90
2023-05-08T10:24:20.590Z,99.90
2023-05-08T10:27:07.542Z,99.90
2023-05-08T10:29:45.119Z,99.90
2023-05-08T10:32:14.525Z,99.90
2023-05-08T10:34:42.833Z,99.90
2023-05-08T10:37:11.190Z,99.90
2023-05-08T10:39:39.650Z,99.90
2023-05-08T10:42:07.509Z,99.90
2023-05-08T10:44:34.954Z,99.90
2023-05-08T10:47:13.805Z,99.90
2023-05-08T10:50:09.751Z,99.90
2023-05-08T10:52:47.955Z,99.90
2023-05-08T10:55:34.138Z,99.90
2023-05-08T10:58:13.384Z,99.90
2023-05-08T11:00:52.698Z,99.90
2023-05-08T11:03:30.671Z,99.90
2023-05-08T11:06:00.456Z,99.90
2023-05-08T11:08:28.888Z,99.90
2023-05-08T11:11:05.384Z,99.90
2023-05-08T11:13:47.325Z,99.90
2023-05-08T11:16:14.493Z,99.90
2023-05-08T11:19:16.543Z,99.90
2023-05-08T11:22:14.541Z,99.90
2023-05-08T11:24:53.029Z,99.90
2023-05-08T11:27:33.519Z,99.90
2023-05-08T11:30:19.985Z,99.90
2023-05-08T11:33:07.448Z,99.90
2023-05-08T11:35:45.827Z,99.90
2023-05-08T11:38:32.048Z,99.90
2023-05-08T11:41:12.098Z,99.90
2023-05-08T11:44:03.092Z,99.90
2023-05-08T11:46:53.682Z,99.90
2023-05-08T11:49:26.995Z,99.90
2023-05-08T11:51:59.128Z,99.90
2023-05-08T11:54:30.081Z,99.90
2023-05-08T11:56:57.765Z,99.90
2023-05-08T11:59:24.861Z,99.90
2023-05-08T12:04:22.477Z,99.90
2023-05-08T12:06:51.679Z,99.90
2023-05-08T12:09:20.674Z,99.90
2023-05-08T12:11:48.152Z,99.90
2023-05-08T12:14:18.258Z,99.90
2023-05-08T12:16:45.544Z,99.90
2023-05-08T12:19:14.120Z,99.90
2023-05-08T12:21:50.157Z,99.90
2023-05-08T12:24:24.540Z,99.90
2023-05-08T12:26:56.552Z,99.90
2023-05-08T12:29:24.132Z,99.90
2023-05-08T12:31:52.871Z,99.90
2023-05-08T12:34:21.082Z,99.90
2023-05-08T12:36:48.349Z,99.90
2023-05-08T12:39:19.269Z,99.90
2023-05-08T12:41:51.185Z,99.90
2023-05-08T12:44:24.541Z,99.90
2023-05-08T12:46:53.261Z,99.90
2023-05-08T12:49:31.564Z,99.90
2023-05-08T12:52:07.135Z,99.90
2023-05-08T12:54:41.884Z,99.90
2023-05-08T12:57:12.805Z,99.90
2023-05-08T12:59:41.400Z,99.90
2023-05-08T13:02:18.551Z,99.90
2023-05-08T13:04:46.591Z,99.90
2023-05-08T13:07:14.170Z,99.90
2023-05-08T13:09:57.360Z,99.90
2023-05-08T13:12:24.569Z,99.90
2023-05-08T13:14:51.686Z,99.90
2023-05-08T13:17:19.244Z,99.90
2023-05-08T13:19:46.343Z,99.90
2023-05-08T13:22:13.475Z,99.90
2023-05-08T13:24:40.544Z,99.90
2023-05-08T13:27:07.803Z,99.90
2023-05-08T13:29:34.924Z,99.90
2023-05-08T13:32:02.125Z,99.90
2023-05-08T13:34:29.298Z,99.90
2023-05-08T13:36:56.546Z,99.90
2023-05-08T13:39:23.673Z,99.90
2023-05-08T13:41:50.868Z,99.90
2023-05-08T13:44:18.013Z,99.90
2023-05-08T13:46:45.163Z,99.90
2023-05-08T13:49:12.231Z,99.90
2023-05-08T13:51:39.597Z,99.90
2023-05-08T13:54:06.784Z,99.90
2023-05-08T13:56:34.028Z,99.90
2023-05-08T13:59:01.149Z,99.90
2023-05-08T14:01:28.339Z,99.90
2023-05-08T14:03:55.902Z,99.90
2023-05-08T14:06:23.209Z,99.90
2023-05-08T14:08:52.700Z,99.90
2023-05-08T14:11:22.516Z,99.90
2023-05-08T14:13:49.880Z,99.90
2023-05-08T14:16:17.130Z,99.90
2023-05-08T14:18:44.439Z,99.90
2023-05-08T14:21:11.649Z,99.90
2023-05-08T14:23:39.227Z,99.90
2023-05-08T14:26:06.319Z,99.90
2023-05-08T14:28:33.615Z,99.90
2023-05-08T14:31:00.798Z,99.90
2023-05-08T14:33:28.351Z,99.90
2023-05-08T14:35:55.560Z,99.90
2023-05-08T14:38:22.748Z,99.90
2023-05-08T14:40:54.633Z,99.90
2023-05-08T14:43:22.815Z,99.90
2023-05-08T14:45:50.981Z,99.90
2023-05-08T14:48:18.442Z,99.90
2023-05-08T14:50:45.684Z,99.90
2023-05-08T14:53:12.896Z,99.90
2023-05-08T14:55:40.405Z,99.90
2023-05-08T14:58:07.877Z,99.90
2023-05-08T15:00:34.994Z,99.90
2023-05-08T15:03:02.158Z,99.90
2023-05-08T15:05:29.510Z,99.90
2023-05-08T15:07:57.643Z,99.90
2023-05-08T15:10:25.009Z,99.90
2023-05-08T15:12:52.208Z,99.90
2023-05-08T15:15:19.307Z,99.90
2023-05-08T15:17:46.480Z,99.90
2023-05-08T15:20:13.728Z,99.90
2023-05-08T15:22:41.037Z,99.90
2023-05-08T15:25:08.487Z,99.90
2023-05-08T15:27:35.793Z,99.90
2023-05-08T15:30:02.908Z,99.90
2023-05-08T15:32:30.102Z,99.90
2023-05-08T15:34:57.188Z,99.90
2023-05-08T15:37:24.582Z,99.90
2023-05-08T15:39:51.700Z,99.90
2023-05-08T15:42:18.945Z,99.90
2023-05-08T15:47:16.113Z,99.90
2023-05-08T15:49:43.219Z,99.90
2023-05-08T15:52:10.380Z,99.90
2023-05-08T15:54:37.499Z,99.90
2023-05-08T15:57:04.755Z,99.90
2023-05-08T15:59:31.872Z,99.90
2023-05-08T16:01:59.014Z,99.90
2023-05-08T16:04:26.121Z,99.90
2023-05-08T16:06:53.316Z,99.90
2023-05-08T16:09:20.435Z,99.90
2023-05-08T16:11:48.309Z,99.90
2023-05-08T16:14:17.189Z,99.90
2023-05-08T16:16:44.489Z,99.90
2023-05-08T16:19:11.668Z,99.90
2023-05-08T16:21:38.887Z,99.90
2023-05-08T16:24:06.275Z,99.90
2023-05-08T16:26:33.352Z,99.90
2023-05-08T16:29:00.469Z,99.90
2023-05-08T16:31:27.719Z,99.90
2023-05-08T16:33:55.099Z,99.90
2023-05-08T16:36:22.263Z,99.90
2023-05-08T16:38:49.416Z,99.90
2023-05-08T16:41:16.525Z,99.90
2023-05-08T16:43:43.768Z,99.90
2023-05-08T16:46:11.045Z,99.90
2023-05-08T16:48:38.130Z,99.90
2023-05-08T16:51:05.291Z,99.90
2023-05-08T16:53:32.878Z,99.90
2023-05-08T16:56:00.054Z,99.90
2023-05-08T16:58:28.061Z,99.90
2023-05-08T17:00:55.221Z,99.90
2023-05-08T17:03:22.703Z,99.90
2023-05-08T17:05:50.126Z,99.90
2023-05-08T17:08:17.901Z,99.90
2023-05-08T17:10:45.061Z,99.90
2023-05-08T17:13:12.160Z,99.90
2023-05-08T17:15:39.438Z,99.90
2023-05-08T17:18:06.658Z,99.90
2023-05-08T17:20:41.099Z,99.90
2023-05-08T17:23:09.682Z,99.90
2023-05-08T17:25:37.340Z,99.90
2023-05-08T17:28:04.634Z,99.90
2023-05-08T17:30:31.980Z,99.90
2023-05-08T17:32:59.357Z,99.90
2023-05-08T17:35:26.574Z,99.90
2023-05-08T17:37:53.748Z,99.90
2023-05-08T17:40:20.975Z,99.90
2023-05-08T17:42:50.694Z,99.90
2023-05-08T17:45:17.880Z,99.90
2023-05-08T17:47:45.097Z,99.90
2023-05-08T17:50:12.528Z,99.90
2023-05-08T17:52:39.927Z,99.90
2023-05-08T17:55:07.694Z,99.90
2023-05-08T17:57:34.853Z,99.90
2023-05-08T18:00:01.979Z,99.90
2023-05-08T18:02:29.166Z,99.90
2023-05-08T18:04:56.301Z,99.90
2023-05-08T18:07:23.498Z,99.90
2023-05-08T18:09:50.657Z,99.90
2023-05-08T18:12:17.866Z,99.90
2023-05-08T18:14:45.432Z,99.90
2023-05-08T18:17:15.616Z,99.90
2023-05-08T18:19:42.751Z,99.90
2023-05-08T18:22:09.869Z,99.90
2023-05-08T18:24:37.124Z,99.90
2023-05-08T18:27:04.184Z,99.90
2023-05-08T18:29:31.443Z,99.90
2023-05-08T18:31:58.726Z,99.90
2023-05-08T18:34:26.481Z,99.90
2023-05-08T18:36:54.909Z,99.90
2023-05-08T18:39:23.795Z,99.90
2023-05-08T18:41:51.218Z,99.90
2023-05-08T18:44:18.459Z,99.90
2023-05-08T18:46:45.952Z,99.90
2023-05-08T18:49:13.215Z,99.90
2023-05-08T18:51:40.334Z,99.90
2023-05-08T18:54:07.832Z,99.90
2023-05-08T18:56:35.087Z,99.90
2023-05-08T18:59:02.372Z,99.90
2023-05-08T19:01:30.149Z,99.90
2023-05-08T19:03:57.509Z,99.90
2023-05-08T19:06:24.718Z,99.90
2023-05-08T19:08:52.470Z,99.90
2023-05-08T19:11:19.750Z,99.90
2023-05-08T19:13:47.048Z,99.90
2023-05-08T19:16:14.742Z,99.90
2023-05-08T19:18:42.060Z,99.90
2023-05-08T19:21:09.789Z,99.90
2023-05-08T19:23:37.409Z,99.90
2023-05-08T19:26:04.873Z,99.90
2023-05-08T19:28:32.082Z,99.90
2023-05-08T19:30:59.532Z,1.00
2023-05-08T19:33:26.864Z,1.00
2023-05-08T19:35:54.081Z,1.00
2023-05-08T19:38:21.265Z,1.00
2023-05-08T19:40:56.261Z,1.00
2023-05-08T19:43:27.763Z,1.00
2023-05-08T19:45:56.256Z,1.00
2023-05-08T19:48:23.744Z,1.00
2023-05-08T19:50:53.591Z,1.00
2023-05-08T19:53:22.508Z,1.00
2023-05-08T19:55:49.666Z,1.00
2023-05-08T19:58:18.100Z,1.00
2023-05-08T20:00:50.855Z,1.00
2023-05-08T20:03:18.854Z,1.00
2023-05-08T20:05:46.463Z,1.00
2023-05-08T20:08:13.696Z,1.00
2023-05-08T20:10:41.409Z,1.00
2023-05-08T20:13:08.682Z,1.00
2023-05-08T20:15:35.947Z,1.00
2023-05-08T20:18:03.230Z,1.00
2023-05-08T20:20:32.324Z,1.00
2023-05-08T20:22:59.450Z,1.00
2023-05-08T20:25:26.602Z,1.00
2023-05-08T20:27:54.208Z,1.00
2023-05-08T20:30:23.509Z,1.00
2023-05-08T20:32:51.097Z,1.00
2023-05-08T20:35:18.317Z,1.00
2023-05-08T20:37:48.119Z,1.00
2023-05-08T20:40:15.655Z,1.00
2023-05-08T20:42:43.054Z,1.00
2023-05-08T20:45:11.129Z,1.00
2023-05-08T20:47:38.460Z,1.00
2023-05-08T20:50:06.349Z,1.00
2023-05-08T20:52:34.604Z,1.00
2023-05-08T20:55:03.639Z,1.00
2023-05-08T20:57:30.947Z,1.00
2023-05-08T20:59:58.107Z,1.00
2023-05-08T21:02:25.512Z,1.00
2023-05-08T21:04:53.199Z,1.00
2023-05-08T21:07:20.458Z,1.00
2023-05-08T21:09:47.614Z,1.00
2023-05-08T21:12:14.739Z,1.00
2023-05-08T21:14:44.266Z,1.00
2023-05-08T21:17:11.489Z,1.00
2023-05-08T21:19:38.634Z,1.00
2023-05-08T21:22:06.090Z,1.00
2023-05-08T21:24:33.349Z,1.00
2023-05-08T21:27:00.492Z,1.00
2023-05-08T21:29:29.012Z,1.00
2023-05-08T21:31:56.217Z,1.00
2023-05-08T21:34:23.378Z,1.00
2023-05-08T21:36:50.536Z,1.00
2023-05-08T21:39:17.686Z,1.00
2023-05-08T21:41:45.011Z,1.00
2023-05-08T21:44:14.462Z,1.00
2023-05-08T21:46:41.752Z,1.00
2023-05-08T21:49:08.928Z,1.00
2023-05-08T21:51:36.092Z,1.00
2023-05-08T21:54:03.282Z,1.00
2023-05-08T21:56:30.419Z,1.00
2023-05-08T21:58:57.536Z,1.00
2023-05-08T22:01:24.675Z,1.00
2023-05-08T22:03:52.036Z,1.00
2023-05-08T22:06:19.363Z,1.00
2023-05-08T22:08:46.711Z,1.00
2023-05-08T22:11:14.011Z,99.90
2023-05-08T22:13:41.273Z,99.90
2023-05-08T22:16:08.605Z,99.90
2023-05-08T22:18:35.907Z,99.90
2023-05-08T22:21:02.977Z,99.90
2023-05-08T22:23:30.162Z,99.90
2023-05-08T22:25:57.247Z,99.90
2023-05-08T22:28:24.372Z,99.90
2023-05-08T22:30:51.511Z,99.90
2023-05-08T22:33:18.952Z,99.90
2023-05-08T22:35:46.067Z,99.90
2023-05-08T22:38:13.187Z,99.90
2023-05-08T22:40:42.629Z,99.90
2023-05-08T22:43:10.007Z,99.90
2023-05-08T22:45:37.468Z,99.90
2023-05-08T22:48:04.998Z,99.90
2023-05-08T22:50:32.164Z,99.90
2023-05-08T22:52:59.318Z,99.90
2023-05-08T22:55:26.487Z,99.90
2023-05-08T22:57:53.663Z,99.90
2023-05-08T23:00:21.109Z,99.90
2023-05-08T23:02:48.212Z,99.90
2023-05-08T23:05:15.642Z,99.90
2023-05-08T23:07:43.075Z,99.90
2023-05-08T23:10:10.714Z,99.90
2023-05-08T23:12:37.885Z,99.90
2023-05-08T23:15:05.397Z,99.90
2023-05-08T23:17:32.518Z,99.90
2023-05-08T23:19:59.731Z,99.90
2023-05-08T23:22:26.906Z,99.90
2023-05-08T23:24:54.020Z,99.90
2023-05-08T23:27:21.291Z,1.00
2023-05-08T23:29:48.449Z,1.00
2023-05-08T23:32:15.681Z,1.00
2023-05-08T23:34:43.627Z,1.00
2023-05-08T23:37:10.841Z,1.00
2023-05-08T23:39:41.637Z,1.00
2023-05-08T23:42:09.489Z,1.00
2023-05-08T23:44:36.551Z,1.00
2023-05-08T23:47:03.814Z,1.00
2023-05-08T23:49:30.946Z,1.00
2023-05-08T23:51:58.060Z,1.00
2023-05-08T23:54:25.857Z,1.00
2023-05-08T23:56:52.997Z,1.00
2023-05-08T23:59:20.054Z,1.00
